createdAt,value
2022-10-18T03:55:06.022Z,176.90
2022-10-18T03:58:29.320Z,138.80
2022-10-18T04:01:52.634Z,154.20
2022-10-18T04:05:16.508Z,73.00
2022-10-18T04:08:39.782Z,55.30
2022-10-18T04:12:03.631Z,50.90
2022-10-18T04:15:26.806Z,64.40
2022-10-18T04:18:50.077Z,63.00
2022-10-18T04:22:13.178Z,60.90
2022-10-18T04:25:36.308Z,62.50
2022-10-18T04:28:59.873Z,52.00
2022-10-18T04:32:23.376Z,49.90
2022-10-18T04:35:47.154Z,46.10
2022-10-18T04:39:10.314Z,45.70
2022-10-18T04:42:33.432Z,45.50
2022-10-18T04:45:56.908Z,52.20
2022-10-18T04:49:20.382Z,50.40
2022-10-18T04:52:43.864Z,46.20
2022-10-18T04:56:08.879Z,44.60
2022-10-18T04:59:32.257Z,46.60
2022-10-18T05:02:58.139Z,47.40
2022-10-18T05:06:21.972Z,48.80
2022-10-18T05:09:45.106Z,47.50
2022-10-18T05:13:08.121Z,46.50
2022-10-18T05:16:32.429Z,46.50
2022-10-18T05:19:55.505Z,48.20
2022-10-18T05:23:18.668Z,49.00
2022-10-18T05:26:41.739Z,46.70
2022-10-18T05:30:06.698Z,43.00
2022-10-18T05:33:31.395Z,45.10
2022-10-18T05:36:54.803Z,44.80
2022-10-18T05:40:18.052Z,45.30
2022-10-18T05:43:41.603Z,45.20
2022-10-18T05:47:05.335Z,45.90
2022-10-18T05:50:28.658Z,44.60
2022-10-18T05:53:54.055Z,42.90
2022-10-18T05:57:17.133Z,42.70
2022-10-18T06:00:40.232Z,42.70
2022-10-18T06:04:03.300Z,44.30
2022-10-18T06:07:26.799Z,41.60
2022-10-18T06:10:49.993Z,41.20
2022-10-18T06:14:13.389Z,40.70
2022-10-18T06:17:36.977Z,40.40
2022-10-18T06:21:00.254Z,38.10
2022-10-18T06:24:23.652Z,37.10
2022-10-18T06:27:46.978Z,38.90
2022-10-18T06:31:11.320Z,37.00
2022-10-18T06:34:35.018Z,40.10
2022-10-18T06:37:58.801Z,40.40
2022-10-18T06:41:22.580Z,40.30
2022-10-18T06:44:47.050Z,38.50
2022-10-18T06:48:10.186Z,40.10
2022-10-18T06:51:33.526Z,37.90
2022-10-18T06:54:56.577Z,35.60
2022-10-18T06:58:19.832Z,36.50
2022-10-18T07:01:43.146Z,34.70
2022-10-18T07:05:07.694Z,35.70
2022-10-18T07:08:31.593Z,32.50
2022-10-18T07:11:54.772Z,35.00
2022-10-18T07:15:17.989Z,36.40
2022-10-18T07:18:43.221Z,35.50
2022-10-18T07:22:06.727Z,34.10
2022-10-18T07:25:30.922Z,36.60
2022-10-18T07:28:57.138Z,36.90
2022-10-18T07:32:20.411Z,36.40
2022-10-18T07:35:43.514Z,34.90
2022-10-18T07:39:06.993Z,34.70
2022-10-18T07:42:30.144Z,33.80
2022-10-18T07:45:53.659Z,34.10
2022-10-18T07:49:17.324Z,31.60
2022-10-18T07:52:40.784Z,32.70
2022-10-18T07:56:08.591Z,37.80
2022-10-18T07:59:32.821Z,37.40
2022-10-18T08:02:58.276Z,33.30
2022-10-18T08:06:22.917Z,33.10
2022-10-18T08:09:46.085Z,32.20
2022-10-18T08:13:09.399Z,32.00
2022-10-18T08:20:11.693Z,32.90
2022-10-18T08:23:38.948Z,32.20
2022-10-18T08:27:02.545Z,32.50
2022-10-18T08:30:25.651Z,32.70
2022-10-18T08:33:48.691Z,32.20
2022-10-18T08:37:11.751Z,30.30
2022-10-18T08:40:35.169Z,29.30
2022-10-18T08:44:07.671Z,29.20
2022-10-18T08:47:35.392Z,27.90
2022-10-18T08:50:59.694Z,29.00
2022-10-18T08:54:31.284Z,27.10
2022-10-18T08:57:56.715Z,27.30
2022-10-18T09:01:34.847Z,28.80
2022-10-18T09:05:13.771Z,23.60
2022-10-18T09:09:01.677Z,25.80
2022-10-18T09:12:52.679Z,23.50
2022-10-18T09:16:21.042Z,24.00
2022-10-18T09:20:11.762Z,25.10
2022-10-18T09:23:45.988Z,24.10
2022-10-18T09:27:16.849Z,25.80
2022-10-18T09:30:48.911Z,26.00
2022-10-18T09:34:19.395Z,25.20
2022-10-18T09:37:44.378Z,25.40
2022-10-18T09:41:13.037Z,24.60
2022-10-18T09:44:40.553Z,27.50
2022-10-18T09:48:11.204Z,26.10
2022-10-18T09:51:37.566Z,34.70
2022-10-18T09:55:05.454Z,37.40
2022-10-18T09:58:40.154Z,35.40
2022-10-18T10:02:03.849Z,29.20
2022-10-18T10:05:27.000Z,26.70
2022-10-18T10:08:56.992Z,28.50
2022-10-18T10:15:54.707Z,27.10
2022-10-18T10:19:20.607Z,26.00
2022-10-18T10:22:46.236Z,27.40
2022-10-18T10:26:22.643Z,27.70
2022-10-18T10:29:53.176Z,25.80
2022-10-18T10:33:37.878Z,26.20
2022-10-18T10:37:01.985Z,24.20
2022-10-18T10:40:28.494Z,27.00
2022-10-18T10:43:52.093Z,27.30
2022-10-18T10:47:28.277Z,25.20
2022-10-18T10:50:56.480Z,28.00
2022-10-18T10:54:24.230Z,25.40
2022-10-18T10:57:50.717Z,27.40
2022-10-18T11:01:38.136Z,25.80
2022-10-18T11:05:24.271Z,24.70
2022-10-18T11:08:50.962Z,25.50
2022-10-18T11:12:26.130Z,19.10
2022-10-18T11:15:55.650Z,18.00
2022-10-18T11:19:34.114Z,17.40
2022-10-18T11:23:03.390Z,16.30
2022-10-18T11:26:42.046Z,17.90
2022-10-18T11:30:36.076Z,19.30
2022-10-18T11:34:25.206Z,16.00
2022-10-18T11:38:04.135Z,16.30
2022-10-18T11:41:39.146Z,17.80
2022-10-18T11:45:14.912Z,15.40
2022-10-18T11:49:10.242Z,14.70
2022-10-18T11:52:41.380Z,13.50
2022-10-18T11:56:13.108Z,12.80
2022-10-18T11:59:42.999Z,12.70
2022-10-18T12:06:53.902Z,9.90
2022-10-18T12:10:27.299Z,22.10
2022-10-18T12:14:04.363Z,8.90
2022-10-18T12:17:47.674Z,7.20
2022-10-18T12:21:13.660Z,6.60
2022-10-18T12:24:37.917Z,8.40
2022-10-18T12:28:07.958Z,8.60
2022-10-18T12:31:36.394Z,8.10
2022-10-18T12:35:04.624Z,8.10
2022-10-18T12:38:30.713Z,8.90
2022-10-18T12:41:56.038Z,9.30
2022-10-18T12:45:26.167Z,8.70
2022-10-18T12:49:01.900Z,9.10
2022-10-18T12:52:28.233Z,7.70
2022-10-18T12:55:53.047Z,7.60
2022-10-18T12:59:42.704Z,7.30
2022-10-18T13:03:37.919Z,9.30
2022-10-18T13:07:20.267Z,7.60
2022-10-18T13:10:45.125Z,6.80
2022-10-18T13:14:44.222Z,6.90
2022-10-18T13:18:27.226Z,8.00
2022-10-18T13:21:58.916Z,8.50
2022-10-18T13:25:27.920Z,7.00
2022-10-18T13:28:57.488Z,27.60
2022-10-18T13:32:28.007Z,8.60
2022-10-18T13:35:56.961Z,8.10
2022-10-18T13:39:20.951Z,11.00
2022-10-18T13:42:44.042Z,10.50
2022-10-18T13:46:07.183Z,39.50
2022-10-18T13:49:44.644Z,12.50
2022-10-18T13:53:26.937Z,7.80
2022-10-18T13:57:17.443Z,9.70
2022-10-18T14:01:01.919Z,8.10
2022-10-18T14:05:16.649Z,15.30
2022-10-18T14:08:48.855Z,10.50
2022-10-18T14:15:43.839Z,8.50
2022-10-18T14:19:17.318Z,8.90
2022-10-18T14:22:46.277Z,11.60
2022-10-18T14:26:15.250Z,16.40
2022-10-18T14:29:38.435Z,10.90
2022-10-18T14:33:01.600Z,10.00
2022-10-18T14:36:26.996Z,10.20
2022-10-18T14:39:50.760Z,10.80
2022-10-18T14:43:18.492Z,10.10
2022-10-18T14:46:44.268Z,9.30
2022-10-18T14:50:22.243Z,9.50
2022-10-18T14:53:46.076Z,10.00
2022-10-18T14:57:17.645Z,23.60
2022-10-18T15:00:43.883Z,29.20
2022-10-18T15:04:11.825Z,19.80
2022-10-18T15:07:36.166Z,15.50
2022-10-18T15:10:59.296Z,19.50
2022-10-18T15:14:22.446Z,42.90
2022-10-18T15:17:46.681Z,19.10
2022-10-18T15:21:22.359Z,21.90
2022-10-18T15:25:02.663Z,24.50
2022-10-18T15:28:29.288Z,20.60
2022-10-18T15:31:52.725Z,19.70
2022-10-18T15:35:23.444Z,20.40
2022-10-18T15:38:50.049Z,24.20
2022-10-18T15:42:39.499Z,22.90
2022-10-18T15:46:06.588Z,26.20
2022-10-18T15:49:53.877Z,32.40
2022-10-18T15:53:51.536Z,31.60
2022-10-18T15:57:17.795Z,22.70
2022-10-18T16:00:42.790Z,19.10
2022-10-18T16:04:12.835Z,20.10
2022-10-18T16:07:36.200Z,20.20
2022-10-18T16:10:59.991Z,20.70
2022-10-18T16:14:24.328Z,22.20
2022-10-18T16:17:48.569Z,23.70
2022-10-18T16:21:18.622Z,23.40
2022-10-18T16:24:41.699Z,20.90
2022-10-18T16:28:04.775Z,20.30
2022-10-18T16:31:30.249Z,20.20
2022-10-18T16:34:53.642Z,19.40
2022-10-18T16:38:23.867Z,21.00
2022-10-18T16:41:47.895Z,22.00
2022-10-18T16:45:11.279Z,22.00
2022-10-18T16:48:34.417Z,20.80
2022-10-18T16:51:58.743Z,18.40
2022-10-18T16:55:24.215Z,15.50
2022-10-18T16:58:48.207Z,13.80
2022-10-18T17:02:11.485Z,17.80
2022-10-18T17:05:34.848Z,58.80
2022-10-18T17:08:59.162Z,22.10
2022-10-18T17:12:22.289Z,17.80
2022-10-18T17:15:45.988Z,22.50
2022-10-18T17:19:11.450Z,17.00
2022-10-18T17:22:34.829Z,15.80
2022-10-18T17:26:07.281Z,14.70
2022-10-18T17:29:41.138Z,46.30
2022-10-18T17:33:04.392Z,34.60
2022-10-18T17:36:28.193Z,22.30
2022-10-18T17:39:51.260Z,13.20
2022-10-18T17:43:14.653Z,11.60
2022-10-18T17:46:37.894Z,12.30
2022-10-18T17:50:00.957Z,20.20
2022-10-18T17:53:27.934Z,28.80
2022-10-18T17:56:53.809Z,20.10
2022-10-18T18:00:18.051Z,13.70
2022-10-18T18:03:41.541Z,11.00
2022-10-18T18:07:04.671Z,11.90
2022-10-18T18:10:28.993Z,12.40
2022-10-18T18:13:54.083Z,12.70
2022-10-18T18:17:24.730Z,13.00
2022-10-18T18:24:23.880Z,13.90
2022-10-18T18:27:47.022Z,13.80
2022-10-18T18:31:12.222Z,13.60
2022-10-18T18:34:36.050Z,13.30
2022-10-18T18:37:59.503Z,12.20
2022-10-18T18:41:25.372Z,12.20
2022-10-18T18:44:49.326Z,12.70
2022-10-18T18:48:14.215Z,12.20
2022-10-18T18:51:41.276Z,12.70
2022-10-18T18:55:05.741Z,12.90
2022-10-18T18:58:29.098Z,13.20
2022-10-18T19:01:52.256Z,13.30
2022-10-18T19:05:15.930Z,12.70
2022-10-18T19:08:39.968Z,14.10
2022-10-18T19:12:03.114Z,13.60
2022-10-18T19:15:26.892Z,14.70
2022-10-18T19:18:59.230Z,16.20
2022-10-18T19:22:22.566Z,14.90
2022-10-18T19:25:45.576Z,15.70
2022-10-18T19:29:11.672Z,16.50
2022-10-18T19:32:35.310Z,15.30
2022-10-18T19:35:58.631Z,14.90
2022-10-18T19:39:23.612Z,15.70
2022-10-18T19:42:46.958Z,15.80
2022-10-18T19:46:10.995Z,15.80
2022-10-18T19:49:34.101Z,17.50
2022-10-18T19:52:57.204Z,17.00
2022-10-18T19:56:22.633Z,16.50
2022-10-18T19:59:45.698Z,16.60
2022-10-18T20:03:08.749Z,17.40
2022-10-18T20:06:32.042Z,17.40
2022-10-18T20:09:55.396Z,18.70
2022-10-18T20:13:19.640Z,18.00
2022-10-18T20:16:42.737Z,18.40
2022-10-18T20:20:08.232Z,18.40
2022-10-18T20:23:32.000Z,19.40
2022-10-18T20:26:55.143Z,19.40
2022-10-18T20:30:18.462Z,22.10
2022-10-18T20:33:41.806Z,21.90
2022-10-18T20:37:04.900Z,24.60
2022-10-18T20:40:27.908Z,24.10
2022-10-18T20:43:55.388Z,24.70
2022-10-18T20:47:18.730Z,23.60
2022-10-18T20:50:42.165Z,22.60
2022-10-18T20:54:07.128Z,22.80
2022-10-18T20:57:32.950Z,23.70
2022-10-18T21:01:06.340Z,23.70
2022-10-18T21:07:52.755Z,21.70
2022-10-18T21:11:15.803Z,21.70
2022-10-18T21:14:39.039Z,22.40
2022-10-18T21:18:02.157Z,21.10
2022-10-18T21:21:25.461Z,21.30
2022-10-18T21:24:50.455Z,22.20
2022-10-18T21:28:13.980Z,21.20
2022-10-18T21:31:39.527Z,22.10
2022-10-18T21:35:02.679Z,21.60
2022-10-18T21:38:26.115Z,23.00
2022-10-18T21:41:49.761Z,21.80
2022-10-18T21:45:12.925Z,21.00
2022-10-18T21:48:36.750Z,21.90
2022-10-18T21:52:02.853Z,22.90
2022-10-18T21:55:26.199Z,22.20
2022-10-18T21:58:49.716Z,22.80
2022-10-18T22:02:12.732Z,21.00
2022-10-18T22:05:36.060Z,20.70
2022-10-18T22:09:00.850Z,20.60
2022-10-18T22:12:24.173Z,20.90
2022-10-18T22:15:47.272Z,21.20
2022-10-18T22:19:11.033Z,21.10
2022-10-18T22:22:34.572Z,22.60
2022-10-18T22:26:02.699Z,23.90
2022-10-18T22:29:26.049Z,23.80
2022-10-18T22:32:49.089Z,24.80
2022-10-18T22:36:12.523Z,24.80
2022-10-18T22:39:35.625Z,23.60
2022-10-18T22:42:58.790Z,22.40
2022-10-18T22:46:21.799Z,19.70
2022-10-18T22:49:44.789Z,22.00
